createdAt,value
2022-11-19T00:01:14.897Z,62.70
2022-11-19T00:03:42.991Z,62.80
2022-11-19T00:06:15.285Z,62.50
2022-11-19T00:08:42.718Z,63.50
2022-11-19T00:11:11.179Z,62.70
2022-11-19T00:13:39.303Z,62.80
2022-11-19T00:16:12.164Z,62.80
2022-11-19T00:18:39.637Z,62.70
2022-11-19T00:21:09.553Z,62.60
2022-11-19T00:23:37.053Z,62.50
2022-11-19T00:26:13.731Z,63.30
2022-11-19T00:28:41.882Z,62.60
2022-11-19T00:31:10.977Z,62.80
2022-11-19T00:33:39.157Z,62.60
2022-11-19T00:36:08.878Z,62.80
2022-11-19T00:38:36.422Z,62.90
2022-11-19T00:41:03.835Z,62.70
2022-11-19T00:43:49.368Z,62.80
2022-11-19T00:46:21.742Z,62.70
2022-11-19T00:48:50.458Z,62.80
2022-11-19T00:51:18.716Z,62.70
2022-11-19T00:53:45.777Z,62.40
2022-11-19T00:56:15.231Z,62.50
2022-11-19T00:58:42.747Z,62.70
2022-11-19T01:01:10.590Z,62.70
2022-11-19T01:03:38.608Z,62.70
2022-11-19T01:06:06.252Z,62.80
2022-11-19T01:08:33.106Z,62.50
2022-11-19T01:11:12.012Z,62.40
2022-11-19T01:13:39.036Z,62.60
2022-11-19T01:16:16.059Z,62.60
2022-11-19T01:18:44.654Z,62.90
2022-11-19T01:21:12.219Z,62.80
2022-11-19T01:23:40.514Z,62.90
2022-11-19T01:26:08.299Z,63.00
2022-11-19T01:28:35.824Z,63.00
2022-11-19T01:31:15.434Z,62.80
2022-11-19T01:33:42.602Z,62.80
2022-11-19T01:36:21.654Z,63.10
2022-11-19T01:38:51.163Z,62.90
2022-11-19T01:41:23.238Z,62.80
2022-11-19T01:43:59.371Z,62.60
2022-11-19T01:46:35.313Z,62.70
2022-11-19T01:49:21.081Z,62.70
2022-11-19T01:52:02.706Z,62.70
2022-11-19T01:54:51.078Z,62.70
2022-11-19T01:57:18.938Z,62.60
2022-11-19T01:59:50.797Z,63.00
2022-11-19T02:02:25.404Z,63.00
2022-11-19T02:04:53.898Z,63.00
2022-11-19T02:07:26.347Z,62.70
2022-11-19T02:09:53.377Z,63.00
2022-11-19T02:12:55.772Z,63.30
2022-11-19T02:15:27.946Z,63.00
2022-11-19T02:18:10.016Z,62.90
2022-11-19T02:20:39.650Z,62.80
2022-11-19T02:23:45.915Z,62.80
2022-11-19T02:26:32.283Z,63.00
2022-11-19T02:29:14.138Z,62.80
2022-11-19T02:31:47.720Z,62.80
2022-11-19T02:34:17.618Z,63.00
2022-11-19T02:36:57.878Z,63.00
2022-11-19T02:39:51.096Z,63.00
2022-11-19T02:42:29.882Z,63.10
2022-11-19T02:45:10.344Z,63.10
2022-11-19T02:47:55.197Z,63.10
2022-11-19T02:50:36.723Z,63.00
2022-11-19T02:53:04.890Z,63.00
2022-11-19T02:55:32.206Z,63.10
2022-11-19T02:58:07.075Z,63.00
2022-11-19T03:01:01.423Z,63.00
2022-11-19T03:03:47.423Z,63.00
2022-11-19T03:06:20.844Z,63.00
2022-11-19T03:08:48.086Z,63.00
2022-11-19T03:11:29.687Z,63.10
2022-11-19T03:14:21.172Z,63.20
2022-11-19T03:17:03.356Z,62.90
2022-11-19T03:19:43.041Z,63.00
2022-11-19T03:22:27.991Z,63.20
2022-11-19T03:24:57.729Z,63.10
2022-11-19T03:27:30.217Z,63.10
2022-11-19T03:30:01.091Z,63.40
2022-11-19T03:32:46.803Z,63.20
2022-11-19T03:35:21.737Z,63.10
2022-11-19T03:37:52.473Z,63.00
2022-11-19T03:40:21.783Z,63.10
2022-11-19T03:42:53.157Z,63.00
2022-11-19T03:45:27.235Z,62.90
2022-11-19T03:47:55.357Z,63.00
2022-11-19T03:50:35.255Z,63.80
2022-11-19T03:53:04.713Z,63.20
2022-11-19T03:55:39.554Z,63.10
2022-11-19T03:58:09.530Z,63.00
2022-11-19T04:00:36.758Z,63.10
2022-11-19T04:03:04.288Z,63.20
2022-11-19T04:05:31.178Z,63.20
2022-11-19T04:07:57.957Z,63.20
2022-11-19T04:10:24.822Z,63.20
2022-11-19T04:12:51.613Z,63.20
2022-11-19T04:15:18.561Z,63.20
2022-11-19T04:17:45.344Z,63.30
2022-11-19T04:20:12.253Z,63.10
2022-11-19T04:22:39.134Z,63.10
2022-11-19T04:25:06.412Z,63.20
2022-11-19T04:27:33.537Z,63.20
2022-11-19T04:30:00.450Z,63.10
2022-11-19T04:32:27.478Z,63.00
2022-11-19T04:34:54.321Z,63.20
2022-11-19T04:37:21.261Z,63.20
2022-11-19T04:39:48.082Z,63.00
2022-11-19T04:42:14.893Z,63.20
2022-11-19T04:44:41.827Z,63.00
2022-11-19T04:47:08.615Z,63.10
2022-11-19T04:49:35.606Z,63.10
2022-11-19T04:52:02.436Z,63.00
2022-11-19T04:54:29.285Z,63.20
2022-11-19T04:56:56.153Z,63.00
2022-11-19T04:59:23.073Z,63.10
2022-11-19T05:01:49.988Z,63.20
2022-11-19T05:04:16.961Z,63.10
2022-11-19T05:06:43.793Z,63.20
2022-11-19T05:09:11.023Z,63.30
2022-11-19T05:11:37.866Z,63.10
2022-11-19T05:14:04.873Z,63.10
2022-11-19T05:16:31.705Z,62.90
2022-11-19T05:18:58.546Z,63.00
2022-11-19T05:21:25.336Z,62.90
2022-11-19T05:23:52.199Z,63.10
2022-11-19T05:26:19.042Z,63.00
2022-11-19T05:28:46.228Z,63.20
2022-11-19T05:31:13.040Z,63.80
2022-11-19T05:33:39.900Z,63.00
2022-11-19T05:36:07.354Z,63.10
2022-11-19T05:38:34.178Z,63.20
2022-11-19T05:41:01.032Z,63.10
2022-11-19T05:43:27.815Z,62.80
2022-11-19T05:45:54.642Z,62.70
2022-11-19T05:48:21.558Z,63.00
2022-11-19T05:50:48.352Z,63.00
2022-11-19T05:53:15.141Z,63.20
2022-11-19T05:55:41.984Z,63.10
2022-11-19T05:58:08.866Z,63.00
2022-11-19T06:00:35.687Z,62.80
2022-11-19T06:03:02.579Z,63.10
2022-11-19T06:05:29.421Z,63.10
2022-11-19T06:07:56.183Z,63.70
2022-11-19T06:10:23.241Z,64.70
2022-11-19T06:12:50.122Z,63.80
2022-11-19T06:15:17.288Z,64.60
2022-11-19T06:17:44.194Z,64.40
2022-11-19T06:20:11.392Z,63.60
2022-11-19T06:22:38.746Z,63.70
2022-11-19T06:25:07.752Z,63.90
2022-11-19T06:27:35.019Z,63.50
2022-11-19T06:30:02.192Z,63.50
2022-11-19T06:32:29.149Z,63.30
2022-11-19T06:34:55.987Z,63.50
2022-11-19T06:37:23.398Z,63.40
2022-11-19T06:39:50.352Z,63.60
2022-11-19T06:42:35.894Z,63.50
2022-11-19T06:45:06.831Z,63.40
2022-11-19T06:47:34.244Z,63.40
2022-11-19T06:50:01.431Z,63.30
2022-11-19T06:52:28.871Z,63.00
2022-11-19T06:54:55.724Z,63.10
2022-11-19T06:57:22.657Z,62.90
2022-11-19T06:59:49.565Z,63.20
2022-11-19T07:02:21.147Z,63.20
2022-11-19T07:04:48.440Z,63.20
2022-11-19T07:07:15.409Z,63.30
2022-11-19T07:09:42.430Z,63.50
2022-11-19T07:12:09.837Z,63.40
2022-11-19T07:14:36.683Z,63.40
2022-11-19T07:17:05.005Z,63.20
2022-11-19T07:19:32.134Z,63.30
2022-11-19T07:21:59.011Z,63.30
2022-11-19T07:24:26.775Z,63.20
2022-11-19T07:26:54.835Z,63.10
2022-11-19T07:29:22.120Z,63.60
2022-11-19T07:31:50.732Z,64.10
2022-11-19T07:34:18.376Z,64.30
2022-11-19T07:36:45.946Z,64.60
2022-11-19T07:39:12.932Z,64.60
2022-11-19T07:41:58.499Z,64.60
2022-11-19T07:44:25.446Z,63.70
2022-11-19T07:46:52.428Z,64.10
2022-11-19T07:49:20.491Z,63.80
2022-11-19T07:51:47.894Z,63.70
2022-11-19T07:54:15.145Z,64.30
2022-11-19T07:56:42.174Z,64.10
2022-11-19T07:59:09.180Z,64.10
2022-11-19T08:01:36.222Z,64.50
2022-11-19T08:04:05.195Z,64.30
2022-11-19T08:06:34.385Z,64.70
2022-11-19T08:09:02.400Z,64.70
2022-11-19T08:11:29.743Z,65.00
2022-11-19T08:13:59.642Z,64.90
2022-11-19T08:16:45.213Z,64.80
2022-11-19T08:19:15.750Z,65.00
2022-11-19T08:21:45.213Z,64.40
2022-11-19T08:24:12.813Z,63.80
2022-11-19T08:26:40.830Z,63.70
2022-11-19T08:29:14.655Z,63.60
2022-11-19T08:31:44.916Z,63.40
2022-11-19T08:34:11.877Z,63.70
2022-11-19T08:36:38.689Z,63.40
2022-11-19T08:39:06.765Z,64.30
2022-11-19T08:41:52.425Z,64.40
2022-11-19T08:44:19.921Z,64.50
2022-11-19T08:46:46.850Z,64.10
2022-11-19T08:49:14.181Z,63.90
2022-11-19T08:51:41.316Z,65.80
2022-11-19T08:54:09.021Z,65.70
2022-11-19T08:56:35.944Z,65.70
2022-11-19T08:59:03.574Z,65.60
2022-11-19T09:01:30.970Z,66.40
2022-11-19T09:03:58.216Z,66.20
2022-11-19T09:06:25.352Z,65.20
2022-11-19T09:08:52.341Z,65.20
2022-11-19T09:11:20.779Z,65.50
2022-11-19T09:13:47.672Z,65.50
2022-11-19T09:16:15.291Z,65.90
2022-11-19T09:18:42.519Z,66.60
2022-11-19T09:21:11.476Z,66.30
2022-11-19T09:23:39.520Z,66.30
2022-11-19T09:26:08.735Z,66.50
2022-11-19T09:28:36.302Z,66.60
2022-11-19T09:31:07.039Z,66.40
2022-11-19T09:33:36.057Z,66.70
2022-11-19T09:36:04.085Z,67.30
2022-11-19T09:38:35.512Z,66.40
2022-11-19T09:41:38.473Z,66.10
2022-11-19T09:44:11.026Z,65.40
2022-11-19T09:47:19.554Z,66.10
2022-11-19T09:50:13.386Z,65.70
2022-11-19T09:52:45.715Z,65.80
2022-11-19T09:55:20.040Z,65.80
2022-11-19T09:57:54.791Z,66.20
2022-11-19T10:00:28.544Z,65.50
2022-11-19T10:02:57.105Z,65.60
2022-11-19T10:06:00.466Z,65.70
2022-11-19T10:08:40.992Z,65.80
2022-11-19T10:11:27.095Z,65.60
2022-11-19T10:14:18.855Z,66.00
2022-11-19T10:17:19.284Z,65.90
2022-11-19T10:20:27.629Z,65.90
2022-11-19T10:23:02.984Z,65.60
2022-11-19T10:25:37.746Z,66.10
2022-11-19T10:28:23.549Z,65.80
2022-11-19T10:30:54.516Z,66.00
2022-11-19T10:33:33.459Z,66.10
2022-11-19T10:36:10.574Z,66.10
2022-11-19T10:39:07.838Z,65.40
2022-11-19T10:41:42.338Z,65.30
2022-11-19T10:44:38.122Z,66.30
2022-11-19T10:47:08.538Z,66.20
2022-11-19T10:49:39.439Z,66.40
2022-11-19T10:52:14.826Z,66.20
2022-11-19T10:54:42.363Z,66.40
2022-11-19T10:57:15.815Z,66.60
2022-11-19T10:59:43.398Z,67.20
2022-11-19T11:02:33.313Z,66.80
2022-11-19T11:05:13.085Z,67.00
2022-11-19T11:08:12.387Z,66.70
2022-11-19T11:10:45.547Z,66.40
2022-11-19T11:13:36.917Z,66.90
2022-11-19T11:16:10.777Z,66.60
2022-11-19T11:18:42.213Z,66.30
2022-11-19T11:21:24.708Z,66.30
2022-11-19T11:23:54.014Z,66.10
2022-11-19T11:26:29.536Z,65.80
2022-11-19T11:29:02.874Z,65.10
2022-11-19T11:31:45.786Z,65.70
2022-11-19T11:34:29.068Z,65.50
2022-11-19T11:37:00.131Z,66.20
2022-11-19T11:39:31.227Z,65.30
2022-11-19T11:42:08.304Z,65.50
2022-11-19T11:44:39.065Z,64.80
2022-11-19T11:47:19.608Z,65.60
2022-11-19T11:49:55.472Z,66.30
2022-11-19T11:52:36.901Z,66.60
2022-11-19T11:55:14.060Z,67.90
2022-11-19T11:58:00.819Z,66.50
2022-11-19T12:00:29.579Z,66.10
2022-11-19T12:03:10.928Z,65.80
2022-11-19T12:05:44.609Z,64.50
2022-11-19T12:08:42.980Z,63.70
2022-11-19T12:11:51.497Z,64.00
2022-11-19T12:14:28.971Z,64.00
2022-11-19T12:17:10.901Z,63.50
2022-11-19T12:20:23.417Z,62.70
2022-11-19T12:22:54.116Z,63.80
2022-11-19T12:25:36.635Z,62.50
2022-11-19T12:28:25.285Z,62.50
2022-11-19T12:30:57.684Z,62.80
2022-11-19T12:33:40.963Z,63.00
2022-11-19T12:36:25.340Z,62.30
2022-11-19T12:39:17.095Z,62.10
2022-11-19T12:42:15.974Z,62.90
2022-11-19T12:44:59.715Z,63.40
2022-11-19T12:47:45.183Z,64.00
2022-11-19T12:50:30.317Z,64.30
2022-11-19T12:53:25.023Z,63.30
2022-11-19T12:56:13.032Z,63.50
2022-11-19T12:58:39.867Z,64.20
2022-11-19T13:01:15.372Z,63.40
2022-11-19T13:04:13.186Z,63.10
2022-11-19T13:06:52.860Z,65.30
2022-11-19T13:09:32.911Z,63.10
2022-11-19T13:12:22.781Z,63.80
2022-11-19T13:15:02.162Z,64.20
2022-11-19T13:17:44.489Z,64.00
2022-11-19T13:20:26.547Z,63.60
2022-11-19T13:23:02.387Z,63.80
2022-11-19T13:25:45.452Z,63.00
2022-11-19T13:28:30.890Z,63.80
2022-11-19T13:31:04.192Z,63.30
2022-11-19T13:33:52.521Z,63.50
2022-11-19T13:36:27.298Z,63.70
2022-11-19T13:39:32.978Z,63.30
2022-11-19T13:42:20.096Z,63.70
2022-11-19T13:44:47.888Z,64.20
2022-11-19T13:47:25.435Z,64.70
2022-11-19T13:50:00.870Z,64.30
2022-11-19T13:52:42.375Z,64.10
2022-11-19T13:55:29.448Z,64.10
2022-11-19T13:58:06.474Z,64.30
2022-11-19T14:00:33.426Z,65.00
2022-11-19T14:03:38.972Z,65.90
2022-11-19T14:06:42.604Z,64.90
2022-11-19T14:09:56.043Z,64.90
2022-11-19T14:12:32.335Z,65.50
2022-11-19T14:15:20.607Z,66.10
2022-11-19T14:18:36.816Z,66.40
2022-11-19T14:21:59.170Z,64.40
2022-11-19T14:24:44.716Z,65.10
2022-11-19T14:27:15.538Z,67.00
2022-11-19T14:29:45.412Z,65.20
2022-11-19T14:32:12.615Z,65.30
2022-11-19T14:35:08.868Z,66.40
2022-11-19T14:37:42.872Z,64.90
2022-11-19T14:40:12.776Z,66.20
2022-11-19T14:43:23.826Z,64.90
2022-11-19T14:46:03.052Z,66.60
2022-11-19T14:48:40.227Z,64.60
2022-11-19T14:51:12.214Z,65.60
2022-11-19T14:53:59.665Z,64.70
2022-11-19T14:56:27.387Z,65.50
2022-11-19T14:59:16.402Z,65.80
2022-11-19T15:02:03.642Z,65.10
2022-11-19T15:04:59.572Z,65.10
2022-11-19T15:07:45.068Z,63.50
2022-11-19T15:10:14.861Z,63.80
2022-11-19T15:12:44.806Z,64.90
2022-11-19T15:15:20.846Z,64.20
2022-11-19T15:18:01.906Z,62.80
2022-11-19T15:21:02.958Z,62.50
2022-11-19T15:23:49.215Z,62.40
2022-11-19T15:26:26.866Z,62.90
2022-11-19T15:29:21.654Z,61.90
2022-11-19T15:32:22.901Z,63.40
2022-11-19T15:35:11.242Z,63.00
2022-11-19T15:38:07.408Z,62.00
2022-11-19T15:40:34.837Z,62.00
2022-11-19T15:43:04.553Z,62.90
2022-11-19T15:45:47.787Z,63.30
2022-11-19T15:48:25.229Z,63.30
2022-11-19T15:50:52.709Z,62.90
2022-11-19T15:53:22.317Z,62.70
2022-11-19T15:55:58.278Z,63.10
2022-11-19T15:58:40.822Z,63.10
2022-11-19T16:01:16.582Z,63.30
2022-11-19T16:03:44.097Z,62.80
2022-11-19T16:06:18.987Z,63.80
2022-11-19T16:08:48.167Z,62.70
2022-11-19T16:11:36.571Z,63.20
2022-11-19T16:14:35.402Z,63.30
2022-11-19T16:17:35.789Z,63.60
2022-11-19T16:20:06.548Z,63.90
2022-11-19T16:22:35.231Z,64.60
2022-11-19T16:25:10.456Z,64.30
2022-11-19T16:27:42.765Z,64.20
2022-11-19T16:30:21.091Z,64.50
2022-11-19T16:32:49.133Z,64.40
2022-11-19T16:35:33.806Z,64.90
2022-11-19T16:38:01.829Z,64.40
2022-11-19T16:40:49.518Z,65.10
2022-11-19T16:43:16.832Z,64.90
2022-11-19T16:45:45.766Z,65.10
2022-11-19T16:48:52.971Z,64.80
2022-11-19T16:52:03.009Z,64.60
2022-11-19T16:54:48.427Z,64.30
2022-11-19T16:57:21.272Z,64.30
2022-11-19T16:59:53.730Z,65.50
2022-11-19T17:02:23.368Z,64.50
2022-11-19T17:04:53.656Z,65.10
2022-11-19T17:07:26.366Z,65.90
2022-11-19T17:10:12.266Z,65.80
2022-11-19T17:12:52.024Z,64.50
2022-11-19T17:15:40.307Z,65.10
2022-11-19T17:18:10.145Z,65.30
2022-11-19T17:20:36.993Z,65.90
2022-11-19T17:23:15.091Z,64.50
2022-11-19T17:25:58.513Z,64.70
2022-11-19T17:28:41.729Z,64.50
2022-11-19T17:31:18.262Z,64.90
2022-11-19T17:34:09.597Z,65.60
2022-11-19T17:36:36.599Z,65.40
2022-11-19T17:39:10.057Z,64.50
2022-11-19T17:41:56.395Z,64.90
2022-11-19T17:44:32.049Z,64.60
2022-11-19T17:46:59.417Z,65.20
2022-11-19T17:49:26.380Z,64.80
2022-11-19T17:51:55.341Z,64.70
2022-11-19T17:54:23.096Z,64.10
2022-11-19T17:56:50.155Z,64.60
2022-11-19T17:59:17.212Z,64.50
2022-11-19T18:01:44.147Z,64.40
2022-11-19T18:04:12.600Z,64.50
2022-11-19T18:06:39.937Z,64.30
2022-11-19T18:09:06.887Z,64.20
2022-11-19T18:11:34.373Z,64.10
2022-11-19T18:14:02.129Z,64.90
2022-11-19T18:16:35.332Z,65.20
2022-11-19T18:19:02.200Z,65.30
2022-11-19T18:21:29.090Z,64.90
2022-11-19T18:23:55.950Z,65.50
2022-11-19T18:26:23.698Z,65.40
2022-11-19T18:28:51.119Z,65.30
2022-11-19T18:31:26.180Z,65.60
2022-11-19T18:33:53.405Z,64.90
2022-11-19T18:36:21.436Z,65.90
2022-11-19T18:38:49.320Z,64.90
2022-11-19T18:41:19.057Z,65.10
2022-11-19T18:44:04.906Z,65.30
2022-11-19T18:46:32.273Z,65.30
2022-11-19T18:49:00.449Z,66.00
2022-11-19T18:51:30.941Z,65.10
2022-11-19T18:53:57.925Z,65.20
2022-11-19T18:56:25.071Z,64.60
2022-11-19T18:58:52.351Z,64.70
2022-11-19T19:01:30.281Z,65.20
2022-11-19T19:04:03.760Z,66.00
2022-11-19T19:06:34.644Z,65.20
2022-11-19T19:09:05.925Z,66.00
2022-11-19T19:11:56.748Z,64.20
2022-11-19T19:14:23.820Z,64.50
2022-11-19T19:16:51.186Z,65.60
2022-11-19T19:19:20.291Z,65.40
2022-11-19T19:21:47.724Z,64.00
2022-11-19T19:24:14.987Z,64.50
2022-11-19T19:26:42.182Z,64.50
2022-11-19T19:29:10.676Z,63.70
2022-11-19T19:31:37.672Z,62.70
2022-11-19T19:34:04.725Z,61.50
2022-11-19T19:36:31.852Z,62.50
2022-11-19T19:38:58.637Z,62.70
2022-11-19T19:41:27.175Z,63.40
2022-11-19T19:43:55.661Z,63.30
2022-11-19T19:46:23.833Z,63.90
2022-11-19T19:48:53.004Z,63.50
2022-11-19T19:51:22.130Z,63.60
2022-11-19T19:53:49.730Z,64.80
2022-11-19T19:56:28.127Z,63.80
2022-11-19T19:58:56.668Z,64.30
2022-11-19T20:01:25.878Z,63.90
2022-11-19T20:03:54.880Z,63.90
2022-11-19T20:06:23.712Z,64.20
2022-11-19T20:08:50.633Z,65.40
2022-11-19T20:11:24.736Z,64.40
2022-11-19T20:13:53.134Z,64.00
2022-11-19T20:16:23.039Z,62.90
2022-11-19T20:18:51.078Z,63.90
2022-11-19T20:21:26.141Z,63.60
2022-11-19T20:23:53.675Z,64.70
2022-11-19T20:26:23.588Z,64.40
2022-11-19T20:28:58.835Z,64.00
2022-11-19T20:31:26.637Z,62.50
2022-11-19T20:33:56.371Z,64.00
2022-11-19T20:36:24.692Z,64.10
2022-11-19T20:38:52.266Z,63.60
2022-11-19T20:41:46.514Z,65.30
2022-11-19T20:44:21.074Z,64.20
2022-11-19T20:46:52.962Z,63.10
2022-11-19T20:49:22.470Z,63.40
2022-11-19T20:51:50.720Z,63.70
2022-11-19T20:54:18.402Z,63.80
2022-11-19T20:56:45.594Z,64.30
2022-11-19T20:59:12.701Z,65.30
2022-11-19T21:01:40.227Z,66.10
2022-11-19T21:04:08.538Z,65.50
2022-11-19T21:06:35.458Z,65.00
2022-11-19T21:09:03.034Z,64.90
2022-11-19T21:11:30.242Z,65.00
2022-11-19T21:13:57.407Z,64.80
2022-11-19T21:16:26.006Z,64.10
2022-11-19T21:18:53.425Z,64.50
2022-11-19T21:21:22.131Z,65.00
2022-11-19T21:23:49.074Z,64.30
2022-11-19T21:26:24.414Z,64.90
2022-11-19T21:28:53.532Z,65.10
2022-11-19T21:31:22.945Z,65.30
2022-11-19T21:33:49.848Z,64.80
2022-11-19T21:36:16.934Z,65.00
2022-11-19T21:38:44.070Z,65.00
2022-11-19T21:41:10.896Z,65.90
2022-11-19T21:43:37.949Z,65.00
2022-11-19T21:46:08.097Z,64.70
2022-11-19T21:48:38.420Z,64.80
2022-11-19T21:51:08.943Z,64.80
2022-11-19T21:53:36.166Z,64.80
2022-11-19T21:56:03.316Z,63.90
2022-11-19T21:58:30.250Z,64.20
2022-11-19T22:01:01.848Z,64.50
2022-11-19T22:03:34.070Z,64.10
2022-11-19T22:06:11.769Z,64.40
2022-11-19T22:08:40.689Z,64.90
2022-11-19T22:11:27.774Z,64.20
2022-11-19T22:13:55.607Z,64.70
2022-11-19T22:16:22.834Z,65.50
2022-11-19T22:18:49.737Z,64.60
2022-11-19T22:21:17.089Z,65.20
2022-11-19T22:23:43.920Z,65.20
2022-11-19T22:26:12.466Z,64.10
2022-11-19T22:28:40.238Z,63.90
2022-11-19T22:31:07.705Z,64.30
2022-11-19T22:33:37.441Z,62.80
2022-11-19T22:36:09.749Z,63.50
2022-11-19T22:38:38.456Z,63.30
2022-11-19T22:41:08.372Z,65.30
2022-11-19T22:43:36.172Z,64.50
2022-11-19T22:46:03.799Z,64.20
2022-11-19T22:48:33.531Z,63.50
2022-11-19T22:51:06.410Z,62.70
2022-11-19T22:53:38.174Z,62.90
2022-11-19T22:56:07.856Z,61.60
2022-11-19T22:58:35.124Z,62.40
2022-11-19T23:01:02.271Z,63.20
2022-11-19T23:03:29.143Z,62.70
2022-11-19T23:05:57.230Z,62.30
2022-11-19T23:08:24.205Z,62.40
2022-11-19T23:10:58.469Z,62.50
2022-11-19T23:13:31.868Z,61.90
2022-11-19T23:16:11.053Z,61.90
2022-11-19T23:18:41.886Z,62.30
2022-11-19T23:21:13.463Z,61.80
2022-11-19T23:23:40.796Z,62.30
2022-11-19T23:26:10.336Z,61.80
2022-11-19T23:28:38.233Z,62.00
2022-11-19T23:31:32.829Z,62.00
2022-11-19T23:33:59.921Z,61.50
2022-11-19T23:36:29.520Z,62.00
2022-11-19T23:38:57.462Z,62.30
2022-11-19T23:41:24.677Z,62.20
2022-11-19T23:43:53.959Z,61.20
2022-11-19T23:46:23.880Z,61.10
2022-11-19T23:48:51.150Z,61.50
2022-11-19T23:51:20.646Z,61.40
2022-11-19T23:53:48.391Z,61.40
2022-11-19T23:56:16.743Z,61.40
2022-11-19T23:58:43.936Z,61.10
